Terminal Aerodrome Forecast
Issued by NWS

Home | Current Version | Previous Version | Text Only | Print | Product List | Glossary On
Versions: 1 2 3 4 5 6 7 8 9 10 11 12 13 14 15 16 17 18 19 20 21 22 23 24 25 26 27 28 29 30 31 32 33 34 35 36
000
FTUS43 KMKX 222332
TAFENW
TAF
KENW 222332Z 2300/2324 13005KT P6SM SKC
     FM230800 19005KT P6SM SKC
     FM231500 18008KT P6SM FEW100 SCT250
     FM232000 18010KT P6SM VCSH SCT040 BKN080
      TEMPO 2320/2322 -SHRA BKN040
     FM232200 20007KT 6SM -SHRA BKN025 OVC035=

USA.gov is the U.S. government's official web portal to all federal, state and local government web resources and services.